sensor_id;sensor_type;location;lat;lon;timestamp;P1;durP1;ratioP1;P2;durP2;ratioP2
10769;SDS011;5437;50.852;4.438;2023-05-07T00:00:38;5.85;;;3.83;;
10769;SDS011;5437;50.852;4.438;2023-05-07T00:03:05;5.90;;;3.92;;
10769;SDS011;5437;50.852;4.438;2023-05-07T00:05:31;6.03;;;3.75;;
10769;SDS011;5437;50.852;4.438;2023-05-07T00:07:57;4.28;;;3.63;;
10769;SDS011;5437;50.852;4.438;2023-05-07T00:10:23;4.68;;;3.40;;
10769;SDS011;5437;50.852;4.438;2023-05-07T00:12:50;6.00;;;3.80;;
10769;SDS011;5437;50.852;4.438;2023-05-07T00:15:16;5.50;;;3.50;;
10769;SDS011;5437;50.852;4.438;2023-05-07T00:17:42;5.38;;;4.15;;
10769;SDS011;5437;50.852;4.438;2023-05-07T00:20:09;6.45;;;4.32;;
10769;SDS011;5437;50.852;4.438;2023-05-07T00:22:35;6.72;;;4.35;;
10769;SDS011;5437;50.852;4.438;2023-05-07T00:25:01;6.07;;;4.38;;
10769;SDS011;5437;50.852;4.438;2023-05-07T00:27:27;6.20;;;4.15;;
10769;SDS011;5437;50.852;4.438;2023-05-07T00:29:53;6.63;;;4.07;;
10769;SDS011;5437;50.852;4.438;2023-05-07T00:32:19;6.38;;;4.03;;
10769;SDS011;5437;50.852;4.438;2023-05-07T00:34:45;6.32;;;4.13;;
10769;SDS011;5437;50.852;4.438;2023-05-07T00:37:11;5.25;;;3.60;;
10769;SDS011;5437;50.852;4.438;2023-05-07T00:39:37;5.30;;;3.90;;
10769;SDS011;5437;50.852;4.438;2023-05-07T00:42:03;6.43;;;4.00;;
10769;SDS011;5437;50.852;4.438;2023-05-07T00:44:29;4.85;;;3.88;;
10769;SDS011;5437;50.852;4.438;2023-05-07T00:46:57;5.10;;;3.53;;
10769;SDS011;5437;50.852;4.438;2023-05-07T00:49:25;5.38;;;3.70;;
10769;SDS011;5437;50.852;4.438;2023-05-07T00:51:54;4.60;;;3.83;;
10769;SDS011;5437;50.852;4.438;2023-05-07T00:54:20;5.22;;;3.75;;
10769;SDS011;5437;50.852;4.438;2023-05-07T00:56:46;5.97;;;3.90;;
10769;SDS011;5437;50.852;4.438;2023-05-07T00:59:12;7.47;;;3.70;;
10769;SDS011;5437;50.852;4.438;2023-05-07T01:01:38;6.72;;;4.25;;
10769;SDS011;5437;50.852;4.438;2023-05-07T01:04:04;4.82;;;3.50;;
10769;SDS011;5437;50.852;4.438;2023-05-07T01:06:30;7.03;;;3.85;;
10769;SDS011;5437;50.852;4.438;2023-05-07T01:08:57;8.55;;;3.53;;
10769;SDS011;5437;50.852;4.438;2023-05-07T01:11:23;6.55;;;3.67;;
10769;SDS011;5437;50.852;4.438;2023-05-07T01:13:50;5.35;;;3.28;;
10769;SDS011;5437;50.852;4.438;2023-05-07T01:16:16;7.93;;;3.75;;
10769;SDS011;5437;50.852;4.438;2023-05-07T01:18:42;4.18;;;3.50;;
10769;SDS011;5437;50.852;4.438;2023-05-07T01:21:09;6.25;;;4.00;;
10769;SDS011;5437;50.852;4.438;2023-05-07T01:23:37;5.85;;;3.35;;
10769;SDS011;5437;50.852;4.438;2023-05-07T01:26:04;5.53;;;3.50;;
10769;SDS011;5437;50.852;4.438;2023-05-07T01:28:30;5.75;;;3.38;;
10769;SDS011;5437;50.852;4.438;2023-05-07T01:30:59;3.50;;;2.95;;
10769;SDS011;5437;50.852;4.438;2023-05-07T01:33:26;4.35;;;3.47;;
10769;SDS011;5437;50.852;4.438;2023-05-07T01:35:56;4.72;;;3.30;;
10769;SDS011;5437;50.852;4.438;2023-05-07T01:38:25;5.32;;;3.30;;
10769;SDS011;5437;50.852;4.438;2023-05-07T01:40:51;3.88;;;3.10;;
10769;SDS011;5437;50.852;4.438;2023-05-07T01:43:17;4.40;;;3.10;;
10769;SDS011;5437;50.852;4.438;2023-05-07T01:45:43;5.72;;;3.20;;
10769;SDS011;5437;50.852;4.438;2023-05-07T01:48:10;4.55;;;3.42;;
10769;SDS011;5437;50.852;4.438;2023-05-07T01:50:37;6.30;;;3.33;;
10769;SDS011;5437;50.852;4.438;2023-05-07T01:53:03;4.07;;;3.35;;
10769;SDS011;5437;50.852;4.438;2023-05-07T01:55:29;6.20;;;3.90;;
10769;SDS011;5437;50.852;4.438;2023-05-07T01:57:55;5.22;;;3.47;;
10769;SDS011;5437;50.852;4.438;2023-05-07T02:00:21;5.80;;;3.63;;
10769;SDS011;5437;50.852;4.438;2023-05-07T02:02:47;6.47;;;3.80;;
10769;SDS011;5437;50.852;4.438;2023-05-07T02:05:13;6.22;;;3.15;;
10769;SDS011;5437;50.852;4.438;2023-05-07T02:07:40;4.93;;;3.75;;
10769;SDS011;5437;50.852;4.438;2023-05-07T02:10:06;6.88;;;3.80;;
10769;SDS011;5437;50.852;4.438;2023-05-07T02:12:32;6.32;;;3.70;;
10769;SDS011;5437;50.852;4.438;2023-05-07T02:14:58;6.28;;;3.58;;
10769;SDS011;5437;50.852;4.438;2023-05-07T02:17:24;5.95;;;3.45;;
10769;SDS011;5437;50.852;4.438;2023-05-07T02:19:50;5.30;;;3.65;;
10769;SDS011;5437;50.852;4.438;2023-05-07T02:22:16;5.65;;;3.60;;
10769;SDS011;5437;50.852;4.438;2023-05-07T02:24:42;6.47;;;3.47;;
10769;SDS011;5437;50.852;4.438;2023-05-07T02:27:09;6.57;;;3.72;;
10769;SDS011;5437;50.852;4.438;2023-05-07T02:29:35;6.88;;;3.42;;
10769;SDS011;5437;50.852;4.438;2023-05-07T02:32:01;5.00;;;3.33;;
10769;SDS011;5437;50.852;4.438;2023-05-07T02:34:27;6.40;;;3.75;;
10769;SDS011;5437;50.852;4.438;2023-05-07T02:36:53;4.90;;;3.40;;
10769;SDS011;5437;50.852;4.438;2023-05-07T02:39:20;5.85;;;3.78;;
10769;SDS011;5437;50.852;4.438;2023-05-07T02:41:46;6.50;;;3.60;;
10769;SDS011;5437;50.852;4.438;2023-05-07T02:44:12;5.80;;;3.50;;
10769;SDS011;5437;50.852;4.438;2023-05-07T02:46:38;5.10;;;3.83;;
10769;SDS011;5437;50.852;4.438;2023-05-07T02:49:05;6.88;;;3.85;;
10769;SDS011;5437;50.852;4.438;2023-05-07T02:51:31;4.55;;;3.30;;
10769;SDS011;5437;50.852;4.438;2023-05-07T02:53:57;7.30;;;3.40;;
10769;SDS011;5437;50.852;4.438;2023-05-07T02:56:26;5.80;;;3.83;;
10769;SDS011;5437;50.852;4.438;2023-05-07T02:58:52;5.85;;;3.50;;
10769;SDS011;5437;50.852;4.438;2023-05-07T03:01:18;5.53;;;3.50;;
10769;SDS011;5437;50.852;4.438;2023-05-07T03:03:45;5.07;;;3.88;;
10769;SDS011;5437;50.852;4.438;2023-05-07T03:06:11;6.13;;;3.88;;
10769;SDS011;5437;50.852;4.438;2023-05-07T03:08:37;6.28;;;3.83;;
10769;SDS011;5437;50.852;4.438;2023-05-07T03:11:03;5.18;;;3.60;;
10769;SDS011;5437;50.852;4.438;2023-05-07T03:13:29;6.55;;;3.50;;
10769;SDS011;5437;50.852;4.438;2023-05-07T03:15:55;4.10;;;3.30;;
10769;SDS011;5437;50.852;4.438;2023-05-07T03:18:21;4.95;;;3.38;;
10769;SDS011;5437;50.852;4.438;2023-05-07T03:20:48;6.07;;;3.63;;
10769;SDS011;5437;50.852;4.438;2023-05-07T03:23:14;5.88;;;3.67;;
10769;SDS011;5437;50.852;4.438;2023-05-07T03:25:40;3.95;;;3.22;;
10769;SDS011;5437;50.852;4.438;2023-05-07T03:28:06;6.53;;;3.80;;
10769;SDS011;5437;50.852;4.438;2023-05-07T03:30:32;4.03;;;3.05;;
10769;SDS011;5437;50.852;4.438;2023-05-07T03:32:58;5.80;;;3.47;;
10769;SDS011;5437;50.852;4.438;2023-05-07T03:35:24;6.47;;;3.30;;
10769;SDS011;5437;50.852;4.438;2023-05-07T03:37:51;6.25;;;4.05;;
10769;SDS011;5437;50.852;4.438;2023-05-07T03:40:17;4.60;;;3.70;;
10769;SDS011;5437;50.852;4.438;2023-05-07T03:42:43;7.05;;;3.67;;
10769;SDS011;5437;50.852;4.438;2023-05-07T03:45:09;6.03;;;3.72;;
10769;SDS011;5437;50.852;4.438;2023-05-07T03:47:35;4.60;;;3.38;;
10769;SDS011;5437;50.852;4.438;2023-05-07T03:50:01;6.07;;;3.85;;
10769;SDS011;5437;50.852;4.438;2023-05-07T03:52:27;5.25;;;3.88;;
10769;SDS011;5437;50.852;4.438;2023-05-07T03:54:53;6.13;;;3.75;;
10769;SDS011;5437;50.852;4.438;2023-05-07T03:57:19;5.18;;;3.58;;
10769;SDS011;5437;50.852;4.438;2023-05-07T03:59:45;5.53;;;3.97;;
10769;SDS011;5437;50.852;4.438;2023-05-07T04:02:11;5.13;;;3.95;;
10769;SDS011;5437;50.852;4.438;2023-05-07T04:04:37;6.65;;;4.13;;
10769;SDS011;5437;50.852;4.438;2023-05-07T04:07:04;5.63;;;3.85;;
10769;SDS011;5437;50.852;4.438;2023-05-07T04:09:30;5.90;;;4.47;;
10769;SDS011;5437;50.852;4.438;2023-05-07T04:11:56;6.90;;;4.53;;
10769;SDS011;5437;50.852;4.438;2023-05-07T04:14:22;6.88;;;4.50;;
10769;SDS011;5437;50.852;4.438;2023-05-07T04:16:48;7.18;;;3.90;;
10769;SDS011;5437;50.852;4.438;2023-05-07T04:19:14;7.43;;;4.57;;
10769;SDS011;5437;50.852;4.438;2023-05-07T04:21:40;6.47;;;4.10;;
10769;SDS011;5437;50.852;4.438;2023-05-07T04:24:06;6.15;;;4.10;;
10769;SDS011;5437;50.852;4.438;2023-05-07T04:26:32;7.95;;;4.30;;
10769;SDS011;5437;50.852;4.438;2023-05-07T04:28:58;6.38;;;4.20;;
10769;SDS011;5437;50.852;4.438;2023-05-07T04:31:24;6.82;;;4.30;;
10769;SDS011;5437;50.852;4.438;2023-05-07T04:33:50;7.90;;;4.05;;
10769;SDS011;5437;50.852;4.438;2023-05-07T04:36:17;8.20;;;4.28;;
10769;SDS011;5437;50.852;4.438;2023-05-07T04:38:43;5.63;;;3.78;;
10769;SDS011;5437;50.852;4.438;2023-05-07T04:41:12;5.78;;;3.97;;
10769;SDS011;5437;50.852;4.438;2023-05-07T04:43:39;7.30;;;4.18;;
10769;SDS011;5437;50.852;4.438;2023-05-07T04:46:05;4.97;;;4.00;;
10769;SDS011;5437;50.852;4.438;2023-05-07T04:48:31;5.63;;;3.90;;
10769;SDS011;5437;50.852;4.438;2023-05-07T04:50:57;6.47;;;3.78;;
10769;SDS011;5437;50.852;4.438;2023-05-07T04:53:23;6.65;;;3.88;;
10769;SDS011;5437;50.852;4.438;2023-05-07T04:55:54;6.88;;;4.03;;
10769;SDS011;5437;50.852;4.438;2023-05-07T04:58:20;4.75;;;3.75;;
10769;SDS011;5437;50.852;4.438;2023-05-07T05:00:46;8.88;;;3.95;;
10769;SDS011;5437;50.852;4.438;2023-05-07T05:03:12;5.15;;;3.85;;
10769;SDS011;5437;50.852;4.438;2023-05-07T05:05:38;4.60;;;4.15;;
10769;SDS011;5437;50.852;4.438;2023-05-07T05:08:04;7.75;;;4.25;;
10769;SDS011;5437;50.852;4.438;2023-05-07T05:10:30;5.05;;;4.18;;
10769;SDS011;5437;50.852;4.438;2023-05-07T05:12:56;6.30;;;4.20;;
10769;SDS011;5437;50.852;4.438;2023-05-07T05:15:23;5.85;;;3.90;;
10769;SDS011;5437;50.852;4.438;2023-05-07T05:17:49;6.40;;;3.90;;
10769;SDS011;5437;50.852;4.438;2023-05-07T05:20:15;4.65;;;3.65;;
10769;SDS011;5437;50.852;4.438;2023-05-07T05:22:41;5.82;;;4.57;;
10769;SDS011;5437;50.852;4.438;2023-05-07T05:25:08;8.73;;;4.18;;
10769;SDS011;5437;50.852;4.438;2023-05-07T05:27:34;6.45;;;4.28;;
10769;SDS011;5437;50.852;4.438;2023-05-07T05:30:01;5.90;;;4.15;;
10769;SDS011;5437;50.852;4.438;2023-05-07T05:32:27;7.22;;;4.30;;
10769;SDS011;5437;50.852;4.438;2023-05-07T05:34:53;4.47;;;3.97;;
10769;SDS011;5437;50.852;4.438;2023-05-07T05:37:19;5.63;;;3.85;;
10769;SDS011;5437;50.852;4.438;2023-05-07T05:39:45;6.80;;;4.30;;
10769;SDS011;5437;50.852;4.438;2023-05-07T05:42:11;4.32;;;3.92;;
10769;SDS011;5437;50.852;4.438;2023-05-07T05:44:37;5.68;;;4.05;;
10769;SDS011;5437;50.852;4.438;2023-05-07T05:47:03;7.05;;;4.10;;
10769;SDS011;5437;50.852;4.438;2023-05-07T05:49:30;5.65;;;5.07;;
10769;SDS011;5437;50.852;4.438;2023-05-07T05:51:56;7.15;;;4.50;;
10769;SDS011;5437;50.852;4.438;2023-05-07T05:54:22;6.32;;;4.55;;
10769;SDS011;5437;50.852;4.438;2023-05-07T05:56:48;7.45;;;4.50;;
10769;SDS011;5437;50.852;4.438;2023-05-07T05:59:15;5.45;;;3.97;;
10769;SDS011;5437;50.852;4.438;2023-05-07T06:01:41;8.13;;;4.00;;
10769;SDS011;5437;50.852;4.438;2023-05-07T06:04:07;5.18;;;4.05;;
10769;SDS011;5437;50.852;4.438;2023-05-07T06:06:33;8.38;;;4.10;;
10769;SDS011;5437;50.852;4.438;2023-05-07T06:08:59;7.78;;;4.35;;
10769;SDS011;5437;50.852;4.438;2023-05-07T06:11:25;5.22;;;3.88;;
10769;SDS011;5437;50.852;4.438;2023-05-07T06:13:51;7.05;;;3.45;;
10769;SDS011;5437;50.852;4.438;2023-05-07T06:16:17;6.55;;;3.75;;
10769;SDS011;5437;50.852;4.438;2023-05-07T06:18:43;6.05;;;3.40;;
10769;SDS011;5437;50.852;4.438;2023-05-07T06:21:11;9.05;;;4.00;;
10769;SDS011;5437;50.852;4.438;2023-05-07T06:23:37;7.38;;;3.70;;
10769;SDS011;5437;50.852;4.438;2023-05-07T06:26:05;6.75;;;3.83;;
10769;SDS011;5437;50.852;4.438;2023-05-07T06:28:31;5.72;;;3.40;;
10769;SDS011;5437;50.852;4.438;2023-05-07T06:31:13;5.55;;;3.38;;
10769;SDS011;5437;50.852;4.438;2023-05-07T06:33:40;6.00;;;3.70;;
10769;SDS011;5437;50.852;4.438;2023-05-07T06:36:06;4.97;;;3.38;;
10769;SDS011;5437;50.852;4.438;2023-05-07T06:38:32;5.15;;;3.35;;
10769;SDS011;5437;50.852;4.438;2023-05-07T06:40:58;6.68;;;3.78;;
10769;SDS011;5437;50.852;4.438;2023-05-07T06:43:24;6.65;;;3.28;;
10769;SDS011;5437;50.852;4.438;2023-05-07T06:45:50;4.55;;;3.20;;
10769;SDS011;5437;50.852;4.438;2023-05-07T06:48:16;5.88;;;3.33;;
10769;SDS011;5437;50.852;4.438;2023-05-07T06:50:42;6.00;;;3.58;;
10769;SDS011;5437;50.852;4.438;2023-05-07T06:53:08;3.75;;;3.00;;
10769;SDS011;5437;50.852;4.438;2023-05-07T06:55:34;7.30;;;3.78;;
10769;SDS011;5437;50.852;4.438;2023-05-07T06:58:03;4.18;;;3.17;;
10769;SDS011;5437;50.852;4.438;2023-05-07T07:00:29;4.65;;;3.00;;
10769;SDS011;5437;50.852;4.438;2023-05-07T07:02:55;5.85;;;3.28;;
10769;SDS011;5437;50.852;4.438;2023-05-07T07:05:21;4.90;;;3.28;;
10769;SDS011;5437;50.852;4.438;2023-05-07T07:07:47;4.72;;;3.10;;
10769;SDS011;5437;50.852;4.438;2023-05-07T07:10:20;5.40;;;2.97;;
10769;SDS011;5437;50.852;4.438;2023-05-07T07:12:46;4.45;;;2.72;;
10769;SDS011;5437;50.852;4.438;2023-05-07T07:15:13;3.95;;;3.10;;
10769;SDS011;5437;50.852;4.438;2023-05-07T07:17:39;7.45;;;3.10;;
10769;SDS011;5437;50.852;4.438;2023-05-07T07:20:05;5.72;;;3.08;;
10769;SDS011;5437;50.852;4.438;2023-05-07T07:22:31;5.47;;;3.00;;
10769;SDS011;5437;50.852;4.438;2023-05-07T07:24:57;4.95;;;3.20;;
10769;SDS011;5437;50.852;4.438;2023-05-07T07:27:23;4.45;;;2.95;;
10769;SDS011;5437;50.852;4.438;2023-05-07T07:29:49;4.03;;;3.08;;
10769;SDS011;5437;50.852;4.438;2023-05-07T07:32:15;5.13;;;3.25;;
10769;SDS011;5437;50.852;4.438;2023-05-07T07:34:41;5.55;;;3.40;;
10769;SDS011;5437;50.852;4.438;2023-05-07T07:37:08;5.78;;;3.50;;
10769;SDS011;5437;50.852;4.438;2023-05-07T07:39:34;5.88;;;3.33;;
10769;SDS011;5437;50.852;4.438;2023-05-07T07:42:02;6.10;;;3.60;;
10769;SDS011;5437;50.852;4.438;2023-05-07T07:44:28;5.85;;;3.35;;
10769;SDS011;5437;50.852;4.438;2023-05-07T07:46:54;4.18;;;3.40;;
10769;SDS011;5437;50.852;4.438;2023-05-07T07:49:21;6.53;;;3.90;;
10769;SDS011;5437;50.852;4.438;2023-05-07T07:51:47;6.38;;;3.75;;
10769;SDS011;5437;50.852;4.438;2023-05-07T07:54:13;5.45;;;3.55;;
10769;SDS011;5437;50.852;4.438;2023-05-07T07:56:39;5.85;;;3.50;;
10769;SDS011;5437;50.852;4.438;2023-05-07T07:59:05;5.00;;;3.25;;
10769;SDS011;5437;50.852;4.438;2023-05-07T08:01:31;4.28;;;3.13;;
10769;SDS011;5437;50.852;4.438;2023-05-07T08:03:57;4.38;;;3.38;;
10769;SDS011;5437;50.852;4.438;2023-05-07T08:06:24;3.92;;;3.13;;
10769;SDS011;5437;50.852;4.438;2023-05-07T08:08:52;3.60;;;2.97;;
10769;SDS011;5437;50.852;4.438;2023-05-07T08:11:19;4.45;;;3.25;;
10769;SDS011;5437;50.852;4.438;2023-05-07T08:13:46;4.95;;;3.47;;
10769;SDS011;5437;50.852;4.438;2023-05-07T08:16:12;4.88;;;3.30;;
10769;SDS011;5437;50.852;4.438;2023-05-07T08:18:38;4.32;;;3.40;;
10769;SDS011;5437;50.852;4.438;2023-05-07T08:21:04;4.20;;;3.15;;
10769;SDS011;5437;50.852;4.438;2023-05-07T08:23:31;5.15;;;3.03;;
10769;SDS011;5437;50.852;4.438;2023-05-07T08:25:57;5.00;;;3.13;;
10769;SDS011;5437;50.852;4.438;2023-05-07T08:28:23;3.95;;;2.90;;
10769;SDS011;5437;50.852;4.438;2023-05-07T08:30:49;4.65;;;2.72;;
10769;SDS011;5437;50.852;4.438;2023-05-07T08:33:16;3.70;;;2.90;;
10769;SDS011;5437;50.852;4.438;2023-05-07T08:35:42;4.82;;;2.65;;
10769;SDS011;5437;50.852;4.438;2023-05-07T08:38:08;3.60;;;3.15;;
10769;SDS011;5437;50.852;4.438;2023-05-07T08:40:36;3.83;;;3.20;;
10769;SDS011;5437;50.852;4.438;2023-05-07T08:43:03;5.95;;;3.03;;
10769;SDS011;5437;50.852;4.438;2023-05-07T08:45:31;5.00;;;3.50;;
10769;SDS011;5437;50.852;4.438;2023-05-07T08:47:58;5.78;;;3.20;;
10769;SDS011;5437;50.852;4.438;2023-05-07T08:50:25;4.47;;;3.28;;
10769;SDS011;5437;50.852;4.438;2023-05-07T08:52:51;7.28;;;3.25;;
10769;SDS011;5437;50.852;4.438;2023-05-07T08:55:17;4.70;;;3.40;;
10769;SDS011;5437;50.852;4.438;2023-05-07T08:57:44;5.10;;;3.60;;
10769;SDS011;5437;50.852;4.438;2023-05-07T09:00:10;6.57;;;4.00;;
10769;SDS011;5437;50.852;4.438;2023-05-07T09:02:36;4.80;;;3.80;;
10769;SDS011;5437;50.852;4.438;2023-05-07T09:05:03;4.30;;;3.30;;
10769;SDS011;5437;50.852;4.438;2023-05-07T09:07:29;4.05;;;3.60;;
10769;SDS011;5437;50.852;4.438;2023-05-07T09:09:56;5.40;;;4.00;;
10769;SDS011;5437;50.852;4.438;2023-05-07T09:12:22;4.90;;;4.05;;
10769;SDS011;5437;50.852;4.438;2023-05-07T09:14:49;4.18;;;3.72;;
10769;SDS011;5437;50.852;4.438;2023-05-07T09:17:15;6.25;;;3.50;;
10769;SDS011;5437;50.852;4.438;2023-05-07T09:19:42;5.05;;;3.72;;
10769;SDS011;5437;50.852;4.438;2023-05-07T09:22:09;6.82;;;4.32;;
10769;SDS011;5437;50.852;4.438;2023-05-07T09:24:35;5.45;;;4.00;;
10769;SDS011;5437;50.852;4.438;2023-05-07T09:27:03;4.85;;;4.30;;
10769;SDS011;5437;50.852;4.438;2023-05-07T09:29:29;5.28;;;3.80;;
10769;SDS011;5437;50.852;4.438;2023-05-07T09:32:04;5.13;;;4.07;;
10769;SDS011;5437;50.852;4.438;2023-05-07T09:34:30;5.93;;;4.65;;
10769;SDS011;5437;50.852;4.438;2023-05-07T09:37:03;5.78;;;4.10;;
10769;SDS011;5437;50.852;4.438;2023-05-07T09:39:42;6.15;;;4.30;;
10769;SDS011;5437;50.852;4.438;2023-05-07T09:42:09;4.80;;;4.35;;
10769;SDS011;5437;50.852;4.438;2023-05-07T09:44:36;5.88;;;4.68;;
10769;SDS011;5437;50.852;4.438;2023-05-07T09:47:04;5.95;;;4.60;;
10769;SDS011;5437;50.852;4.438;2023-05-07T09:49:30;4.85;;;4.30;;
10769;SDS011;5437;50.852;4.438;2023-05-07T09:52:00;5.80;;;4.35;;
10769;SDS011;5437;50.852;4.438;2023-05-07T09:54:26;5.65;;;4.07;;
10769;SDS011;5437;50.852;4.438;2023-05-07T09:56:56;6.47;;;4.10;;
10769;SDS011;5437;50.852;4.438;2023-05-07T09:59:25;4.57;;;3.30;;
10769;SDS011;5437;50.852;4.438;2023-05-07T10:01:55;5.82;;;4.10;;
10769;SDS011;5437;50.852;4.438;2023-05-07T10:04:23;5.10;;;3.53;;
10769;SDS011;5437;50.852;4.438;2023-05-07T10:06:49;4.57;;;3.83;;
10769;SDS011;5437;50.852;4.438;2023-05-07T10:09:15;4.15;;;3.35;;
10769;SDS011;5437;50.852;4.438;2023-05-07T10:11:41;6.20;;;3.70;;
10769;SDS011;5437;50.852;4.438;2023-05-07T10:14:08;4.45;;;3.53;;
10769;SDS011;5437;50.852;4.438;2023-05-07T10:16:35;6.30;;;3.60;;
10769;SDS011;5437;50.852;4.438;2023-05-07T10:19:05;6.07;;;3.03;;
10769;SDS011;5437;50.852;4.438;2023-05-07T10:21:34;4.70;;;3.08;;
10769;SDS011;5437;50.852;4.438;2023-05-07T10:24:11;4.75;;;3.13;;
10769;SDS011;5437;50.852;4.438;2023-05-07T10:26:42;4.50;;;2.30;;
10769;SDS011;5437;50.852;4.438;2023-05-07T10:31:52;3.63;;;2.45;;
10769;SDS011;5437;50.852;4.438;2023-05-07T10:34:23;3.67;;;2.40;;
10769;SDS011;5437;50.852;4.438;2023-05-07T10:36:50;3.30;;;2.63;;
10769;SDS011;5437;50.852;4.438;2023-05-07T10:39:17;3.10;;;2.70;;
10769;SDS011;5437;50.852;4.438;2023-05-07T10:41:43;4.65;;;2.60;;
10769;SDS011;5437;50.852;4.438;2023-05-07T10:44:09;3.25;;;2.40;;
10769;SDS011;5437;50.852;4.438;2023-05-07T10:46:35;4.25;;;2.40;;
10769;SDS011;5437;50.852;4.438;2023-05-07T10:51:33;4.72;;;2.60;;
10769;SDS011;5437;50.852;4.438;2023-05-07T10:56:38;3.78;;;3.00;;
10769;SDS011;5437;50.852;4.438;2023-05-07T11:01:59;4.75;;;3.00;;
10769;SDS011;5437;50.852;4.438;2023-05-07T11:04:31;4.38;;;2.60;;
10769;SDS011;5437;50.852;4.438;2023-05-07T11:15:09;3.90;;;2.78;;
10769;SDS011;5437;50.852;4.438;2023-05-07T11:17:56;3.60;;;2.65;;
10769;SDS011;5437;50.852;4.438;2023-05-07T11:26:06;4.35;;;2.70;;
10769;SDS011;5437;50.852;4.438;2023-05-07T11:28:39;4.25;;;3.22;;
10769;SDS011;5437;50.852;4.438;2023-05-07T11:31:05;3.63;;;2.70;;
10769;SDS011;5437;50.852;4.438;2023-05-07T11:33:32;4.10;;;2.40;;
10769;SDS011;5437;50.852;4.438;2023-05-07T11:36:01;3.55;;;2.60;;
10769;SDS011;5437;50.852;4.438;2023-05-07T11:38:28;3.08;;;2.67;;
10769;SDS011;5437;50.852;4.438;2023-05-07T11:40:59;3.75;;;2.80;;
10769;SDS011;5437;50.852;4.438;2023-05-07T11:43:30;4.50;;;2.88;;
10769;SDS011;5437;50.852;4.438;2023-05-07T11:46:04;3.13;;;2.28;;
10769;SDS011;5437;50.852;4.438;2023-05-07T11:48:30;2.35;;;2.15;;
10769;SDS011;5437;50.852;4.438;2023-05-07T11:53:25;2.42;;;2.20;;
10769;SDS011;5437;50.852;4.438;2023-05-07T21:01:30;8.95;;;8.05;;
10769;SDS011;5437;50.852;4.438;2023-05-07T21:03:56;10.93;;;9.90;;
10769;SDS011;5437;50.852;4.438;2023-05-07T21:06:22;10.27;;;9.27;;
10769;SDS011;5437;50.852;4.438;2023-05-07T21:08:48;11.50;;;10.07;;
10769;SDS011;5437;50.852;4.438;2023-05-07T21:11:15;10.52;;;9.52;;
10769;SDS011;5437;50.852;4.438;2023-05-07T21:13:41;10.82;;;9.50;;
10769;SDS011;5437;50.852;4.438;2023-05-07T21:16:08;10.75;;;9.68;;
10769;SDS011;5437;50.852;4.438;2023-05-07T21:18:34;10.18;;;9.18;;
10769;SDS011;5437;50.852;4.438;2023-05-07T21:21:00;9.85;;;8.85;;
10769;SDS011;5437;50.852;4.438;2023-05-07T21:23:26;10.27;;;9.27;;
10769;SDS011;5437;50.852;4.438;2023-05-07T21:25:52;10.70;;;9.60;;
10769;SDS011;5437;50.852;4.438;2023-05-07T21:28:18;10.30;;;9.23;;
10769;SDS011;5437;50.852;4.438;2023-05-07T21:30:44;10.10;;;9.05;;
10769;SDS011;5437;50.852;4.438;2023-05-07T21:33:10;9.93;;;8.90;;
10769;SDS011;5437;50.852;4.438;2023-05-07T21:35:37;10.90;;;9.45;;
10769;SDS011;5437;50.852;4.438;2023-05-07T21:38:03;10.30;;;9.23;;
10769;SDS011;5437;50.852;4.438;2023-05-07T21:40:29;10.50;;;9.57;;
10769;SDS011;5437;50.852;4.438;2023-05-07T21:42:55;10.85;;;9.63;;
10769;SDS011;5437;50.852;4.438;2023-05-07T21:45:21;11.07;;;9.43;;
10769;SDS011;5437;50.852;4.438;2023-05-07T21:47:47;12.25;;;10.15;;
10769;SDS011;5437;50.852;4.438;2023-05-07T21:50:13;12.32;;;11.05;;
10769;SDS011;5437;50.852;4.438;2023-05-07T21:52:39;14.48;;;11.32;;
10769;SDS011;5437;50.852;4.438;2023-05-07T21:55:06;13.38;;;11.32;;
10769;SDS011;5437;50.852;4.438;2023-05-07T21:57:32;13.15;;;11.30;;
10769;SDS011;5437;50.852;4.438;2023-05-07T21:59:59;13.65;;;11.32;;
10769;SDS011;5437;50.852;4.438;2023-05-07T22:02:26;12.88;;;11.40;;
10769;SDS011;5437;50.852;4.438;2023-05-07T22:04:52;12.95;;;11.25;;
10769;SDS011;5437;50.852;4.438;2023-05-07T22:07:18;13.38;;;11.90;;
10769;SDS011;5437;50.852;4.438;2023-05-07T22:09:44;15.77;;;12.13;;
10769;SDS011;5437;50.852;4.438;2023-05-07T22:12:10;14.13;;;11.48;;
10769;SDS011;5437;50.852;4.438;2023-05-07T22:14:36;13.63;;;11.63;;
10769;SDS011;5437;50.852;4.438;2023-05-07T22:17:02;14.60;;;12.75;;
10769;SDS011;5437;50.852;4.438;2023-05-07T22:19:28;13.57;;;12.13;;
10769;SDS011;5437;50.852;4.438;2023-05-07T22:21:54;13.85;;;12.35;;
10769;SDS011;5437;50.852;4.438;2023-05-07T22:24:20;13.57;;;12.18;;
10769;SDS011;5437;50.852;4.438;2023-05-07T22:26:47;12.55;;;11.05;;
10769;SDS011;5437;50.852;4.438;2023-05-07T22:29:13;13.23;;;11.82;;
10769;SDS011;5437;50.852;4.438;2023-05-07T22:31:39;11.95;;;10.75;;
10769;SDS011;5437;50.852;4.438;2023-05-07T22:34:05;12.35;;;11.05;;
10769;SDS011;5437;50.852;4.438;2023-05-07T22:36:31;10.32;;;9.27;;
10769;SDS011;5437;50.852;4.438;2023-05-07T22:38:58;11.23;;;9.48;;
10769;SDS011;5437;50.852;4.438;2023-05-07T22:41:24;12.30;;;9.50;;
10769;SDS011;5437;50.852;4.438;2023-05-07T22:43:50;10.90;;;9.18;;
10769;SDS011;5437;50.852;4.438;2023-05-07T22:46:16;9.55;;;8.55;;
10769;SDS011;5437;50.852;4.438;2023-05-07T22:48:42;10.25;;;8.13;;
10769;SDS011;5437;50.852;4.438;2023-05-07T22:51:12;8.65;;;7.50;;
10769;SDS011;5437;50.852;4.438;2023-05-07T22:53:38;9.85;;;8.50;;
10769;SDS011;5437;50.852;4.438;2023-05-07T22:56:05;9.45;;;8.45;;
10769;SDS011;5437;50.852;4.438;2023-05-07T22:58:31;8.60;;;7.80;;
10769;SDS011;5437;50.852;4.438;2023-05-07T23:00:58;9.57;;;8.10;;
10769;SDS011;5437;50.852;4.438;2023-05-07T23:03:24;9.38;;;8.15;;
10769;SDS011;5437;50.852;4.438;2023-05-07T23:05:51;9.27;;;8.38;;
10769;SDS011;5437;50.852;4.438;2023-05-07T23:08:17;10.18;;;8.07;;
10769;SDS011;5437;50.852;4.438;2023-05-07T23:10:43;9.32;;;8.18;;
10769;SDS011;5437;50.852;4.438;2023-05-07T23:13:09;9.02;;;8.13;;
10769;SDS011;5437;50.852;4.438;2023-05-07T23:15:41;8.82;;;7.97;;
10769;SDS011;5437;50.852;4.438;2023-05-07T23:18:07;9.63;;;8.73;;
10769;SDS011;5437;50.852;4.438;2023-05-07T23:20:33;11.05;;;8.43;;
10769;SDS011;5437;50.852;4.438;2023-05-07T23:22:59;8.27;;;7.47;;
10769;SDS011;5437;50.852;4.438;2023-05-07T23:25:25;11.18;;;8.40;;
10769;SDS011;5437;50.852;4.438;2023-05-07T23:27:53;9.77;;;8.48;;
10769;SDS011;5437;50.852;4.438;2023-05-07T23:30:19;9.45;;;8.55;;
10769;SDS011;5437;50.852;4.438;2023-05-07T23:32:45;9.35;;;8.40;;
10769;SDS011;5437;50.852;4.438;2023-05-07T23:35:12;9.40;;;8.45;;
10769;SDS011;5437;50.852;4.438;2023-05-07T23:37:38;9.02;;;8.13;;
10769;SDS011;5437;50.852;4.438;2023-05-07T23:40:04;9.93;;;8.82;;
10769;SDS011;5437;50.852;4.438;2023-05-07T23:42:31;8.68;;;7.78;;
10769;SDS011;5437;50.852;4.438;2023-05-07T23:44:57;9.45;;;8.48;;
10769;SDS011;5437;50.852;4.438;2023-05-07T23:47:23;9.73;;;8.73;;
10769;SDS011;5437;50.852;4.438;2023-05-07T23:49:49;10.25;;;8.70;;
10769;SDS011;5437;50.852;4.438;2023-05-07T23:52:15;9.75;;;8.73;;
10769;SDS011;5437;50.852;4.438;2023-05-07T23:54:41;10.27;;;8.77;;
10769;SDS011;5437;50.852;4.438;2023-05-07T23:57:07;10.13;;;8.82;;
10769;SDS011;5437;50.852;4.438;2023-05-07T23:59:33;10.02;;;9.02;;
